Bookmark and Share
Track history (hours):
 

APL Denmark

Last reported at 2014-Apr-21 01:17 UTC. Time now 2014-Apr-21 15:16 UTC.
Position N 36°02' W 004°57'.

Length 277 m; beam 40 m; draft 14 m.

Type: Ship (hazmat cat A). MMSI: 636091157.

NotesDate/timePositionNaut miles runAvg speedWind from/ knotsBaromVisibWave heightAir tempDewpointWater temp
2014-Apr-21 01:17N 36°02' W 004°57'1419.4
2014-Apr-21 00:33N 35°59' W 005°14'1414.2
2014-Apr-20 23:33N 35°54' W 005°30'0 0.0
2014-Apr-20 16:23N 35°54' W 005°30'5 5.9
2014-Apr-20 15:32N 35°54' W 005°36'1615.9
2014-Apr-20 14:32N 35°53' W 005°56'21915.4
2014-Apr-20 00:22N 37°45' W 009°51'1416.1
2014-Apr-19 23:28N 37°59' W 009°55'81018.0
2014-Apr-18 02:33N 50°11' W 001°51'2423.6
2014-Apr-18 01:33N 50°16' W 001°15'2121.4
2014-Apr-18 00:33N 50°22' W 000°43'2019.8
2014-Apr-17 23:33N 50°28' W 000°13'1918.9
2014-Apr-17 22:32N 50°33' E 000°16'1818.5
2014-Apr-17 21:34N 50°40' E 000°42'2121.4
2014-Apr-17 20:33N 50°54' E 001°08'2323.5
2014-Apr-17 19:34N 51°08' E 001°37'2121.2
2014-Apr-17 18:34N 51°28' E 001°52'1919.1
2014-Apr-17 17:34N 51°46' E 001°45'9 8.7
2014-Apr-17 16:33N 51°45' E 001°31'2120.7
2014-Apr-17 15:34N 51°31' E 001°05'1918.6
2014-Apr-17 14:34N 51°30' E 000°36'1010.2
2014-Apr-17 13:34N 51°27' E 000°20'0 0.2
2014-Apr-17 12:33N 51°28' E 000°20'0 0.0
2014-Apr-17 11:33N 51°28' E 000°20'0 0.0
2014-Apr-17 10:34N 51°28' E 000°20'0 0.0
2014-Apr-17 09:34N 51°28' E 000°20'0 0.0
2014-Apr-17 08:34N 51°28' E 000°20'0 0.0
2014-Apr-17 07:33N 51°28' E 000°20'0 0.0
2014-Apr-17 06:34N 51°28' E 000°20'0 0.0
2014-Apr-17 05:34N 51°28' E 000°20'0 0.0
2014-Apr-17 04:33N 51°28' E 000°20'0 0.0
2014-Apr-17 03:34N 51°28' E 000°20'0 0.0
2014-Apr-17 02:34N 51°28' E 000°20'0 0.0
2014-Apr-17 01:33N 51°28' E 000°20'0 0.0
2014-Apr-17 00:33N 51°28' E 000°20'0 0.0
2014-Apr-16 23:34N 51°28' E 000°20'0 0.0
2014-Apr-16 22:33N 51°28' E 000°20'0 0.0
2014-Apr-16 21:33N 51°28' E 000°20'0 0.0
2014-Apr-16 20:33N 51°28' E 000°20'0 0.0
2014-Apr-16 19:33N 51°28' E 000°20'0 0.0
2014-Apr-16 18:33N 51°28' E 000°20'0 0.0
2014-Apr-16 17:33N 51°28' E 000°20'0 0.0
2014-Apr-16 16:33N 51°28' E 000°20'0 0.0
2014-Apr-16 15:33N 51°28' E 000°20'0 0.0
2014-Apr-16 14:33N 51°28' E 000°20'0 0.0
2014-Apr-16 13:33N 51°28' E 000°20'0 0.0
2014-Apr-16 12:33N 51°28' E 000°20'0 0.0
2014-Apr-16 11:33N 51°28' E 000°20'0 0.0
2014-Apr-16 10:33N 51°28' E 000°20'0 0.0
2014-Apr-16 09:33N 51°28' E 000°20'0 0.0
2014-Apr-16 08:33N 51°28' E 000°20'0 0.0
2014-Apr-16 07:33N 51°28' E 000°20'0 0.0
2014-Apr-16 06:33N 51°28' E 000°20'0 0.0
2014-Apr-16 05:33N 51°28' E 000°20'0 0.0
2014-Apr-16 04:33N 51°28' E 000°20'0 0.0
2014-Apr-16 03:33N 51°28' E 000°20'0 0.0
2014-Apr-16 02:33N 51°28' E 000°20'0 0.0
2014-Apr-16 01:33N 51°28' E 000°20'4 4.3
2014-Apr-16 00:34N 51°28' E 000°27'9 8.6
2014-Apr-15 23:33N 51°30' E 000°40'1111.1
2014-Apr-15 22:34N 51°29' E 000°58'1313.4
2014-Apr-15 21:33N 51°36' E 001°17'1515.3
2014-Apr-15 20:33N 51°47' E 001°33'10 9.8
2014-Apr-15 19:33N 51°54' E 001°43'1 0.8
2014-Apr-15 18:31N 51°55' E 001°42'0 0.2
2014-Apr-15 17:25N 51°55' E 001°42'0 0.1
2014-Apr-15 16:31N 51°55' E 001°42'0 0.0
2014-Apr-15 15:31N 51°55' E 001°42'0 0.0
2014-Apr-15 14:31N 51°55' E 001°42'0 0.0
2014-Apr-15 12:32N 51°55' E 001°42'0 0.4
2014-Apr-15 11:32N 51°55' E 001°42'0 0.0
2014-Apr-15 10:32N 51°55' E 001°42'0 0.0
2014-Apr-15 09:32N 51°55' E 001°42'0 0.0
2014-Apr-15 08:32N 51°55' E 001°42'0 0.1
2014-Apr-15 07:32N 51°55' E 001°42'0 0.0
2014-Apr-15 06:32N 51°55' E 001°42'0 0.1
2014-Apr-15 01:33N 51°55' E 001°42'0 0.0
2014-Apr-15 00:34N 51°55' E 001°42'0 0.2
2014-Apr-14 23:32N 51°55' E 001°42'0 0.2
2014-Apr-14 22:34N 51°55' E 001°42'0 0.0
2014-Apr-14 21:34N 51°55' E 001°42'5 4.9
2014-Apr-14 20:34N 51°51' E 001°48'9 8.8
2014-Apr-14 19:34N 51°42' E 001°49'1111.1
2014-Apr-14 18:34N 51°31' E 001°53'1413.7
2014-Apr-14 17:34N 51°22' E 002°09'1615.8
2014-Apr-14 16:33N 51°23' E 002°35'1515.3
2014-Apr-14 15:34N 51°25' E 002°59'1717.1
2014-Apr-14 14:34N 51°25' E 003°26'1110.6
2014-Apr-14 13:34N 51°23' E 003°43'19 9.4
2014-Apr-14 11:34N 51°22' E 004°13'3 2.8
2014-Apr-14 10:33N 51°20' E 004°16'0 0.0
2014-Apr-14 09:33N 51°20' E 004°16'0 0.0
2014-Apr-14 08:33N 51°20' E 004°16'0 0.0
2014-Apr-14 07:33N 51°20' E 004°17'0 0.0
2014-Apr-14 06:33N 51°20' E 004°17'0 0.0
2014-Apr-14 05:33N 51°20' E 004°16'0 0.0
2014-Apr-13 22:33N 51°20' E 004°16'0 0.0
2014-Apr-13 21:33N 51°20' E 004°16'0 0.0
2014-Apr-13 20:33N 51°20' E 004°16'0 0.0
2014-Apr-13 19:33N 51°20' E 004°16'0 0.0
2014-Apr-13 18:33N 51°20' E 004°16'0 0.0
2014-Apr-13 17:33N 51°20' E 004°16'0 0.0
2014-Apr-13 16:33N 51°20' E 004°16'0 0.0
2014-Apr-13 15:33N 51°20' E 004°16'0 0.0
2014-Apr-13 14:33N 51°20' E 004°16'0 0.0
2014-Apr-13 13:33N 51°20' E 004°16'0 0.0
2014-Apr-13 12:33N 51°20' E 004°16'0 0.0
2014-Apr-13 11:33N 51°20' E 004°16'0 0.0
2014-Apr-13 10:33N 51°20' E 004°16'0 0.0
2014-Apr-13 09:33N 51°20' E 004°16'0 0.0
2014-Apr-13 08:33N 51°20' E 004°16'0 0.0
2014-Apr-13 07:33N 51°20' E 004°16'0 0.0
2014-Apr-13 06:33N 51°20' E 004°16'0 0.0
2014-Apr-13 05:33N 51°20' E 004°16'0 0.0
2014-Apr-13 04:33N 51°20' E 004°16'0 0.0
2014-Apr-13 03:33N 51°20' E 004°16'0 0.0
2014-Apr-13 02:34N 51°20' E 004°16'0 0.0
2014-Apr-13 01:33N 51°20' E 004°16'0 0.0
2014-Apr-13 00:34N 51°20' E 004°16'0 0.0
2014-Apr-12 23:34N 51°20' E 004°16'0 0.0
2014-Apr-12 22:33N 51°20' E 004°16'0 0.0
2014-Apr-12 21:33N 51°20' E 004°16'5 5.0
2014-Apr-12 20:33N 51°23' E 004°10'10 9.9
2014-Apr-12 19:33N 51°22' E 003°54'1111.0
2014-Apr-12 18:33N 51°26' E 003°38'1212.5
2014-Apr-12 17:33N 51°24' E 003°18'1111.5
2014-Apr-12 16:33N 51°28' E 003°01'1615.9
2014-Apr-12 15:33N 51°42' E 003°12'7 7.2
2014-Apr-12 14:33N 51°48' E 003°17'8 8.0
2014-Apr-12 13:33N 51°56' E 003°19'1615.4
2014-Apr-12 12:29N 52°13' E 003°22'1818.3
2014-Apr-12 11:30N 52°30' E 003°28'2318.9
2014-Apr-12 10:17N 52°50' E 003°49'1520.1
2014-Apr-12 09:34N 53°00' E 004°05'2020.1
2014-Apr-12 08:33N 53°15' E 004°28'2119.5
2014-Apr-12 07:29N 53°32' E 004°50'1920.3
2014-Apr-12 06:34N 53°39' E 005°19'2020.0
2014-Apr-12 05:32N 53°45' E 005°52'2020.1
2014-Apr-12 04:33N 53°51' E 006°24'2120.8
2014-Apr-12 03:33N 53°56' E 006°58'2221.6
2014-Apr-12 02:33N 54°01' E 007°34'1919.5
2014-Apr-12 01:34N 54°01' E 008°07'1817.9
2014-Apr-12 00:33N 53°58' E 008°37'1413.8
2014-Apr-11 23:34N 53°51' E 008°57'1211.8
2014-Apr-11 22:33N 53°52' E 009°17'1312.8
2014-Apr-11 21:33N 53°42' E 009°30'9 9.4
2014-Apr-11 20:33N 53°34' E 009°40'9 8.7
2014-Apr-11 19:33N 53°32' E 009°54'0 0.4
2014-Apr-11 18:28N 53°32' E 009°55'0 0.0
2014-Apr-11 17:28N 53°32' E 009°55'0 0.0
2014-Apr-11 16:28N 53°32' E 009°55'0 0.0
2014-Apr-11 15:31N 53°32' E 009°55'0 0.0
2014-Apr-11 14:28N 53°32' E 009°55'0 0.0
2014-Apr-11 13:31N 53°32' E 009°55'0 0.0
2014-Apr-11 12:31N 53°32' E 009°55'0 0.0
2014-Apr-11 11:22N 53°32' E 009°55'0 0.0
2014-Apr-11 10:31N 53°32' E 009°55'0 0.0
2014-Apr-11 09:31N 53°32' E 009°55'0 0.0
2014-Apr-11 08:28N 53°32' E 009°55'0 0.0
2014-Apr-11 07:31N 53°32' E 009°55'0 0.0
2014-Apr-11 06:28N 53°32' E 009°55'0 0.0
2014-Apr-11 05:31N 53°32' E 009°55'0 0.0
2014-Apr-11 04:31N 53°32' E 009°55'0 0.0
2014-Apr-11 03:28N 53°32' E 009°55'0 0.0
2014-Apr-11 02:31N 53°32' E 009°55'0 0.0
2014-Apr-11 01:31N 53°32' E 009°55'  

Dump ship's entire track history

sailing weather and tide predictions

APL Denmark — A8JX9 — position and weather